Archival Weather

Biggin Hill

Biggin Hill, United Kingdom (EGKB)

Report from: Sunday, September 25, 2022 11:20 AM BST
Current time: Saturday, March 2, 2024 9:56 AM GMT

Current weather – Weather history – Daily summaries
Weather forecast

Temperature13.0°C (55.4°F)
Dew point5.0°C (41.0°F)
Winds 10 kts (5.1 m/s, 11.5 mph) Vrb
Winds variableWinds variable from Northwest (320°) to North-Northeast (20°)
Visibility6.2 mi. (10 km)
Clouds Few clouds 3,000 ft. (914 m)
Altimeter30.12 in.Hg (1020 mB)
Relative humidity58 %
Density altitude-337 ft. (-103 m)
Flight conditions Visual Meteorological Conditions
Raw dataEGKB 251020Z 35010KT 320V020 9999 FEW030 13/05 Q1020
An error has occurred. This application may no longer respond until reloaded. Reload 🗙